createdAt,value
2018-11-28T00:00:30.495Z,22.40
2018-11-28T00:03:01.365Z,23.77
2018-11-28T00:05:30.236Z,22.25
2018-11-28T00:08:13.995Z,22.62
2018-11-28T00:10:42.984Z,21.80
2018-11-28T00:13:11.846Z,22.82
2018-11-28T00:15:40.711Z,24.50
2018-11-28T00:18:09.574Z,23.32
2018-11-28T00:20:38.426Z,23.20
2018-11-28T00:23:07.274Z,24.45
2018-11-28T00:25:36.146Z,22.90
2018-11-28T00:35:01.862Z,26.10
2018-11-28T00:37:30.671Z,25.12
2018-11-28T00:39:59.471Z,24.90
2018-11-28T00:42:30.858Z,25.00
2018-11-28T00:44:59.692Z,23.60
2018-11-28T00:47:28.513Z,24.82
2018-11-28T00:49:57.399Z,25.20
2018-11-28T00:52:26.191Z,24.82
2018-11-28T00:54:55.011Z,24.45
2018-11-28T00:57:23.826Z,24.65
2018-11-28T00:59:52.618Z,25.43
2018-11-28T01:02:21.430Z,24.50
2018-11-28T01:04:50.297Z,24.43
2018-11-28T01:07:19.111Z,25.10
2018-11-28T01:09:47.931Z,24.32
2018-11-28T01:12:16.742Z,23.50
2018-11-28T01:14:45.534Z,24.40
2018-11-28T01:17:14.325Z,25.10
2018-11-28T01:19:43.166Z,24.87
2018-11-28T01:22:12.029Z,25.30
2018-11-28T01:24:40.840Z,24.98
2018-11-28T01:27:09.643Z,24.82
2018-11-28T01:29:38.431Z,26.10
2018-11-28T01:32:07.211Z,25.35
2018-11-28T01:34:38.995Z,26.42
2018-11-28T01:37:07.777Z,24.90
2018-11-28T01:39:36.595Z,25.27
2018-11-28T01:42:05.493Z,26.15
2018-11-28T01:44:34.260Z,26.57
2018-11-28T01:47:03.129Z,25.88
2018-11-28T01:49:31.903Z,27.27
2018-11-28T01:52:00.706Z,26.20
2018-11-28T01:54:29.523Z,25.92
2018-11-28T01:56:58.328Z,26.52
2018-11-28T01:59:27.078Z,28.77
2018-11-28T02:01:55.890Z,28.32
2018-11-28T02:04:24.690Z,26.37
2018-11-28T02:06:53.478Z,26.48
2018-11-28T02:09:22.267Z,26.73
2018-11-28T02:11:51.041Z,26.20
2018-11-28T02:14:19.820Z,26.45
2018-11-28T02:16:48.615Z,26.07
2018-11-28T02:19:17.395Z,25.62
2018-11-28T02:21:46.188Z,25.30
2018-11-28T02:24:14.991Z,26.10
2018-11-28T02:26:43.844Z,25.15
2018-11-28T02:29:12.723Z,26.17
2018-11-28T02:31:41.518Z,26.53
2018-11-28T02:34:10.342Z,26.48
2018-11-28T02:36:39.117Z,26.30
2018-11-28T02:39:09.754Z,27.93
2018-11-28T02:41:38.553Z,28.27
2018-11-28T02:44:07.584Z,26.80
2018-11-28T02:46:36.384Z,26.02
2018-11-28T02:49:05.315Z,26.70
2018-11-28T02:51:34.112Z,25.90
2018-11-28T02:54:02.890Z,28.02
2018-11-28T02:56:31.710Z,25.83
2018-11-28T02:59:00.602Z,28.47
2018-11-28T03:01:29.424Z,26.97
2018-11-28T03:03:58.231Z,26.37
2018-11-28T03:06:27.011Z,26.00
2018-11-28T03:08:55.832Z,25.62
2018-11-28T03:11:24.656Z,26.33
2018-11-28T03:13:53.461Z,26.73
2018-11-28T03:16:22.273Z,26.07
2018-11-28T03:18:51.151Z,27.13
2018-11-28T03:21:20.094Z,26.50
2018-11-28T03:23:48.887Z,28.25
2018-11-28T03:26:17.706Z,27.15
2018-11-28T03:28:46.495Z,25.80
2018-11-28T03:31:15.308Z,26.10
2018-11-28T03:33:44.151Z,26.93
2018-11-28T03:36:12.938Z,26.40
2018-11-28T03:38:41.738Z,26.37
2018-11-28T03:41:10.658Z,27.05
2018-11-28T03:43:39.462Z,24.95
2018-11-28T03:46:08.263Z,27.00
2018-11-28T03:48:37.059Z,27.23
2018-11-28T03:51:05.896Z,27.90
2018-11-28T03:53:34.711Z,27.90
2018-11-28T03:56:03.519Z,28.27
2018-11-28T03:58:32.295Z,28.40
2018-11-28T04:01:01.123Z,26.93
2018-11-28T04:03:29.946Z,27.40
2018-11-28T04:05:58.836Z,26.65
2018-11-28T04:08:27.642Z,27.62
2018-11-28T04:10:56.491Z,26.87
2018-11-28T04:13:25.283Z,26.42
2018-11-28T04:15:54.107Z,26.75
2018-11-28T04:18:22.887Z,27.13
2018-11-28T04:20:51.704Z,27.03
2018-11-28T04:23:20.510Z,28.00
2018-11-28T04:25:49.407Z,27.40
2018-11-28T04:28:18.205Z,26.90
2018-11-28T04:30:47.019Z,27.70
2018-11-28T04:33:15.831Z,28.32
2018-11-28T04:35:44.664Z,28.32
2018-11-28T04:38:13.471Z,28.57
2018-11-28T04:40:42.275Z,26.52
2018-11-28T04:43:11.131Z,27.95
2018-11-28T04:45:39.946Z,26.35
2018-11-28T04:48:08.747Z,27.15
2018-11-28T04:50:37.574Z,28.77
2018-11-28T04:53:06.699Z,27.80
2018-11-28T04:55:35.499Z,29.42
2018-11-28T04:58:04.318Z,28.17
2018-11-28T05:00:33.151Z,27.70
2018-11-28T05:03:01.947Z,27.50
2018-11-28T05:05:30.773Z,29.37
2018-11-28T05:07:59.579Z,29.02
2018-11-28T05:10:29.515Z,29.15
2018-11-28T05:12:59.077Z,28.55
2018-11-28T05:15:29.930Z,29.70
2018-11-28T05:17:58.780Z,30.10
2018-11-28T05:20:28.677Z,29.75
2018-11-28T05:22:57.510Z,28.83
2018-11-28T05:25:28.137Z,28.85
2018-11-28T05:27:57.121Z,29.60
2018-11-28T05:30:27.064Z,29.35
2018-11-28T05:32:55.903Z,30.52
2018-11-28T05:35:31.198Z,29.10
2018-11-28T05:38:00.176Z,28.52
2018-11-28T05:40:29.036Z,30.95
2018-11-28T05:42:57.876Z,28.77
2018-11-28T05:45:26.770Z,28.05
2018-11-28T05:47:55.690Z,27.15
2018-11-28T05:50:24.600Z,27.37
2018-11-28T05:52:53.432Z,26.90
2018-11-28T05:55:22.846Z,27.73
2018-11-28T05:57:51.703Z,29.65
2018-11-28T06:00:31.688Z,28.15
2018-11-28T06:03:01.038Z,28.97
2018-11-28T06:05:29.856Z,28.92
2018-11-28T06:07:58.742Z,29.30
2018-11-28T06:10:27.579Z,28.25
2018-11-28T06:12:56.420Z,28.25
2018-11-28T06:15:25.244Z,29.00
2018-11-28T06:17:54.067Z,29.73
2018-11-28T06:20:22.889Z,29.00
2018-11-28T06:22:51.731Z,27.93
2018-11-28T06:25:20.592Z,29.37
2018-11-28T06:27:49.510Z,29.07
2018-11-28T06:30:20.243Z,28.65
2018-11-28T06:32:51.572Z,28.80
2018-11-28T06:35:17.983Z,28.60
2018-11-28T06:37:46.823Z,28.92
2018-11-28T06:40:16.444Z,27.58
2018-11-28T06:42:46.801Z,29.82
2018-11-28T06:45:16.948Z,28.45
2018-11-28T06:47:45.948Z,26.82
2018-11-28T06:50:16.317Z,26.77
2018-11-28T06:52:47.290Z,27.70
2018-11-28T06:55:17.299Z,28.40
2018-11-28T06:57:46.149Z,29.32
2018-11-28T07:00:18.933Z,27.20
2018-11-28T07:02:48.623Z,28.45
2018-11-28T07:05:17.458Z,27.93
2018-11-28T07:07:46.306Z,28.20
2018-11-28T07:10:16.319Z,28.75
2018-11-28T07:12:45.209Z,28.05
2018-11-28T07:15:15.995Z,29.00
2018-11-28T07:17:44.992Z,29.60
2018-11-28T07:20:15.632Z,28.23
2018-11-28T07:22:44.486Z,28.40
2018-11-28T07:25:14.545Z,28.87
2018-11-28T07:30:20.420Z,29.50
2018-11-28T07:32:50.546Z,29.90
2018-11-28T07:35:19.342Z,27.35
2018-11-28T07:37:48.144Z,27.58
2018-11-28T07:40:18.201Z,28.60
2018-11-28T07:43:18.910Z,27.93
2018-11-28T07:45:49.275Z,28.00
2018-11-28T07:48:18.098Z,28.80
2018-11-28T07:50:47.502Z,28.12
2018-11-28T07:53:15.749Z,29.15
2018-11-28T07:55:44.582Z,27.80
2018-11-28T07:58:13.390Z,29.85
2018-11-28T08:00:42.199Z,29.53
2018-11-28T08:03:12.196Z,28.57
2018-11-28T08:05:39.824Z,28.73
2018-11-28T08:08:09.703Z,27.02
2018-11-28T08:10:38.513Z,26.80
2018-11-28T08:13:07.891Z,29.48
2018-11-28T08:15:36.687Z,27.23
2018-11-28T08:18:05.504Z,28.17
2018-11-28T08:20:35.097Z,26.95
2018-11-28T08:23:03.930Z,27.65
2018-11-28T08:25:32.786Z,28.02
2018-11-28T08:28:01.599Z,26.27
2018-11-28T08:30:30.381Z,28.67
2018-11-28T08:32:59.173Z,27.73
2018-11-28T08:35:27.967Z,26.93
2018-11-28T08:37:56.798Z,27.98
2018-11-28T08:40:26.349Z,26.60
2018-11-28T08:42:57.265Z,26.77
2018-11-28T08:45:26.060Z,26.97
2018-11-28T08:47:56.090Z,28.38
2018-11-28T08:50:26.178Z,27.07
2018-11-28T08:52:55.022Z,26.85
2018-11-28T08:55:23.855Z,28.05
2018-11-28T08:57:52.737Z,27.37
2018-11-28T09:00:22.496Z,27.53
2018-11-28T09:02:53.299Z,27.98
2018-11-28T09:05:22.135Z,27.52
2018-11-28T09:07:50.996Z,27.25
2018-11-28T09:10:20.165Z,27.55
2018-11-28T09:12:49.584Z,25.40
2018-11-28T09:15:22.474Z,27.37
2018-11-28T09:17:51.327Z,27.42
2018-11-28T09:20:20.131Z,27.32
2018-11-28T09:22:48.984Z,26.83
2018-11-28T09:25:18.388Z,28.77
2018-11-28T09:27:48.351Z,29.95
2018-11-28T09:30:18.987Z,27.25
2018-11-28T09:32:48.530Z,28.80
2018-11-28T09:35:17.585Z,29.95
2018-11-28T09:37:46.408Z,28.25
2018-11-28T09:40:17.219Z,27.07
2018-11-28T09:42:46.282Z,27.70
2018-11-28T09:45:16.110Z,28.45
2018-11-28T09:47:44.974Z,27.05
2018-11-28T09:50:17.451Z,28.98
2018-11-28T09:52:46.299Z,28.10
2018-11-28T09:55:17.211Z,27.02
2018-11-28T09:57:46.106Z,26.93
2018-11-28T10:00:19.390Z,26.25
2018-11-28T10:02:49.006Z,26.90
2018-11-28T10:05:23.110Z,27.20
2018-11-28T10:07:51.911Z,28.77
2018-11-28T10:10:20.730Z,27.05
2018-11-28T10:12:49.560Z,26.37
2018-11-28T10:15:22.246Z,26.80
2018-11-28T10:17:51.034Z,28.92
2018-11-28T10:20:20.040Z,28.63
2018-11-28T10:22:49.845Z,27.67
2018-11-28T10:25:19.783Z,27.17
2018-11-28T10:27:57.374Z,29.20
2018-11-28T10:30:27.459Z,27.45
2018-11-28T10:32:56.319Z,26.85
2018-11-28T10:35:25.156Z,26.12
2018-11-28T10:37:53.978Z,27.50
2018-11-28T10:40:23.658Z,28.30
2018-11-28T10:42:55.505Z,26.87
2018-11-28T10:45:25.515Z,27.95
2018-11-28T10:47:54.428Z,24.75
2018-11-28T10:50:23.260Z,25.52
2018-11-28T10:52:52.085Z,25.60
2018-11-28T10:55:22.852Z,25.90
2018-11-28T10:57:51.834Z,26.05
2018-11-28T11:00:27.060Z,26.17
2018-11-28T11:03:01.204Z,26.00
2018-11-28T11:05:35.330Z,25.88
2018-11-28T11:08:09.522Z,26.00
2018-11-28T11:10:43.876Z,26.20
2018-11-28T11:13:18.115Z,25.60
2018-11-28T11:15:52.272Z,25.15
2018-11-28T11:18:21.070Z,27.17
2018-11-28T11:20:49.863Z,24.90
2018-11-28T11:23:18.648Z,25.90
2018-11-28T11:25:47.439Z,24.45
2018-11-28T11:28:16.215Z,24.10
2018-11-28T11:30:45.027Z,23.27
2018-11-28T11:33:13.780Z,25.43
2018-11-28T11:35:42.574Z,24.77
2018-11-28T11:38:11.396Z,25.15
2018-11-28T11:40:40.156Z,25.27
2018-11-28T11:43:09.282Z,25.82
2018-11-28T11:45:38.075Z,25.40
2018-11-28T11:48:06.910Z,24.25
2018-11-28T11:50:35.749Z,24.65
2018-11-28T11:53:04.871Z,25.00
2018-11-28T11:55:34.116Z,25.00
2018-11-28T11:58:02.514Z,24.93
2018-11-28T12:00:31.302Z,24.92
2018-11-28T12:03:08.474Z,23.62
2018-11-28T12:05:37.339Z,22.37
2018-11-28T12:08:06.947Z,23.12
2018-11-28T12:10:35.751Z,22.52
2018-11-28T12:13:04.722Z,22.22
2018-11-28T12:15:33.557Z,22.50
2018-11-28T12:18:02.336Z,22.55
2018-11-28T12:20:35.152Z,22.02
2018-11-28T12:23:03.973Z,21.50
2018-11-28T12:25:32.774Z,21.02
2018-11-28T12:28:01.607Z,21.80
2018-11-28T12:30:30.418Z,21.35
2018-11-28T12:32:59.289Z,22.37
2018-11-28T12:35:28.093Z,21.17
2018-11-28T12:37:57.244Z,21.50
2018-11-28T12:40:26.057Z,21.10
2018-11-28T12:42:54.871Z,19.95
2018-11-28T12:45:23.675Z,20.72
2018-11-28T12:47:52.520Z,20.37
2018-11-28T12:50:26.367Z,20.25
2018-11-28T12:52:59.144Z,20.05
2018-11-28T12:55:28.466Z,19.17
2018-11-28T12:57:57.643Z,18.80
2018-11-28T13:00:27.752Z,20.92
2018-11-28T13:02:56.593Z,20.00
2018-11-28T13:05:26.293Z,19.12
2018-11-28T13:07:55.144Z,20.43
2018-11-28T13:10:25.370Z,20.40
2018-11-28T13:12:54.595Z,19.17
2018-11-28T13:15:24.387Z,19.55
2018-11-28T13:17:53.233Z,18.50
2018-11-28T13:20:22.341Z,19.60
2018-11-28T13:22:54.271Z,18.40
2018-11-28T13:25:24.061Z,18.98
2018-11-28T13:27:52.932Z,18.82
2018-11-28T13:30:22.507Z,18.87
2018-11-28T13:32:51.988Z,18.85
2018-11-28T13:35:21.863Z,17.93
2018-11-28T13:37:51.799Z,17.83
2018-11-28T13:40:20.981Z,18.10
2018-11-28T13:42:49.743Z,17.90
2018-11-28T13:45:22.314Z,17.82
2018-11-28T13:47:52.074Z,16.27
2018-11-28T13:50:20.921Z,16.77
2018-11-28T13:52:50.396Z,17.23
2018-11-28T13:55:43.160Z,17.50
2018-11-28T13:57:56.401Z,16.60
2018-11-28T14:00:25.184Z,17.73
2018-11-28T14:02:53.974Z,15.28
2018-11-28T14:05:22.786Z,16.15
2018-11-28T14:07:51.592Z,16.27
2018-11-28T14:10:20.387Z,17.02
2018-11-28T14:12:49.202Z,16.65
2018-11-28T14:15:18.944Z,17.10
2018-11-28T14:17:51.930Z,16.80
2018-11-28T14:20:20.723Z,16.35
2018-11-28T14:22:49.530Z,16.52
2018-11-28T14:25:18.336Z,16.32
2018-11-28T14:27:47.142Z,16.30
2018-11-28T14:30:19.766Z,16.60
2018-11-28T14:32:48.750Z,16.27
2018-11-28T14:35:17.897Z,15.50
2018-11-28T14:37:47.049Z,16.85
2018-11-28T14:40:18.899Z,16.32
2018-11-28T14:42:50.071Z,16.60
2018-11-28T14:45:19.474Z,16.20
2018-11-28T14:47:49.066Z,16.05
2018-11-28T14:50:20.413Z,16.60
2018-11-28T14:52:49.315Z,16.90
2018-11-28T14:55:21.063Z,16.70
2018-11-28T14:57:50.644Z,16.45
2018-11-28T15:00:21.620Z,15.83
2018-11-28T15:03:22.302Z,16.63
2018-11-28T15:06:28.690Z,17.52
2018-11-28T15:09:02.781Z,16.23
2018-11-28T15:11:31.654Z,16.20
2018-11-28T15:14:00.461Z,16.52
2018-11-28T15:16:29.227Z,16.43
2018-11-28T15:18:58.059Z,16.32
2018-11-28T15:21:26.828Z,16.40
2018-11-28T15:23:55.661Z,16.73
2018-11-28T15:26:24.450Z,16.87
2018-11-28T15:28:53.250Z,17.20
2018-11-28T15:31:22.018Z,17.23
2018-11-28T15:33:50.866Z,16.95
2018-11-28T15:36:19.658Z,16.82
2018-11-28T15:38:48.439Z,17.05
2018-11-28T15:41:17.191Z,18.20
2018-11-28T15:43:45.967Z,19.23
2018-11-28T15:46:15.259Z,19.00
2018-11-28T15:48:43.607Z,19.40
2018-11-28T15:51:12.526Z,18.60
2018-11-28T15:53:41.358Z,20.88
2018-11-28T15:56:10.190Z,21.35
2018-11-28T15:58:38.994Z,21.45
2018-11-28T16:01:07.805Z,19.40
2018-11-28T16:03:36.627Z,20.97
2018-11-28T16:06:05.496Z,21.42
2018-11-28T16:08:34.299Z,22.48
2018-11-28T16:11:06.435Z,21.27
2018-11-28T16:13:35.254Z,23.27
2018-11-28T16:16:04.078Z,24.40
2018-11-28T16:18:32.878Z,22.42
2018-11-28T16:21:01.671Z,23.42
2018-11-28T16:23:30.478Z,23.80
2018-11-28T16:25:59.294Z,25.60
2018-11-28T16:28:28.139Z,25.10
2018-11-28T16:30:56.927Z,24.00
2018-11-28T16:33:25.766Z,25.62
2018-11-28T16:35:54.570Z,24.63
2018-11-28T16:38:23.375Z,26.48
2018-11-28T16:40:52.166Z,25.62
2018-11-28T16:43:20.966Z,26.80
2018-11-28T16:45:49.783Z,23.93
2018-11-28T16:48:18.573Z,24.07
2018-11-28T16:50:47.350Z,25.27
2018-11-28T16:53:16.150Z,26.20
2018-11-28T16:55:44.946Z,26.10
2018-11-28T16:58:13.743Z,27.42
2018-11-28T17:00:43.834Z,29.80
2018-11-28T17:03:12.651Z,28.12
2018-11-28T17:05:41.469Z,27.32
2018-11-28T17:08:10.598Z,28.70
2018-11-28T17:10:39.445Z,30.57
2018-11-28T17:13:08.203Z,29.05
2018-11-28T17:15:37.008Z,30.53
2018-11-28T17:18:06.334Z,30.52
2018-11-28T17:20:35.583Z,32.48
2018-11-28T17:23:04.667Z,33.58
2018-11-28T17:25:33.514Z,31.02
2018-11-28T17:28:02.306Z,31.02
2018-11-28T17:30:31.183Z,33.80
2018-11-28T17:32:59.975Z,30.40
2018-11-28T17:35:28.766Z,33.15
2018-11-28T17:37:57.555Z,35.27
2018-11-28T17:40:27.502Z,31.65
2018-11-28T17:42:57.435Z,33.35
2018-11-28T17:45:26.851Z,36.28
2018-11-28T17:47:55.634Z,33.42
2018-11-28T17:50:25.346Z,35.45
2018-11-28T17:52:58.826Z,33.05
2018-11-28T17:55:28.750Z,33.50
2018-11-28T17:57:57.530Z,33.45
2018-11-28T18:00:26.322Z,33.85
2018-11-28T18:02:55.084Z,32.47
2018-11-28T18:05:23.892Z,32.85
2018-11-28T18:07:52.651Z,31.77
2018-11-28T18:10:22.087Z,31.40
2018-11-28T18:13:02.043Z,30.13
2018-11-28T18:15:30.850Z,32.40
2018-11-28T18:17:59.594Z,31.82
2018-11-28T18:20:28.390Z,29.65
2018-11-28T18:22:57.190Z,30.17
2018-11-28T18:25:27.325Z,30.10
2018-11-28T18:27:56.155Z,27.73
2018-11-28T18:30:25.031Z,30.10
2018-11-28T18:32:53.809Z,30.20
2018-11-28T18:35:22.575Z,29.60
2018-11-28T18:37:51.375Z,26.57
2018-11-28T18:40:20.165Z,29.07
2018-11-28T18:42:49.544Z,26.85
2018-11-28T18:45:20.799Z,27.02
2018-11-28T18:47:49.665Z,27.37
2018-11-28T18:50:18.494Z,27.37
2018-11-28T18:52:47.251Z,28.35
2018-11-28T18:55:19.358Z,28.83
2018-11-28T18:57:50.722Z,28.35
2018-11-28T19:00:22.510Z,26.15
2018-11-28T19:02:51.831Z,26.65
2018-11-28T19:05:20.618Z,27.85
2018-11-28T19:07:49.382Z,25.68
2018-11-28T19:10:19.141Z,25.92
2018-11-28T19:12:47.982Z,25.72
2018-11-28T19:15:24.691Z,24.60
2018-11-28T19:17:54.061Z,25.17
2018-11-28T19:20:23.193Z,24.95
2018-11-28T19:22:55.539Z,23.83
2018-11-28T19:25:26.216Z,20.93
2018-11-28T19:27:55.043Z,23.67
2018-11-28T19:30:32.122Z,22.27
2018-11-28T19:33:00.928Z,22.95
2018-11-28T19:35:29.805Z,21.23
2018-11-28T19:37:58.750Z,22.17
2018-11-28T19:40:31.422Z,21.12
2018-11-28T19:43:00.257Z,21.17
2018-11-28T19:45:29.073Z,20.48
2018-11-28T19:47:58.631Z,20.92
2018-11-28T19:50:29.169Z,19.23
2018-11-28T19:52:58.000Z,21.00
2018-11-28T19:55:26.788Z,20.57
2018-11-28T19:57:55.790Z,20.65
2018-11-28T20:00:24.597Z,21.17
2018-11-28T20:02:53.397Z,21.33
2018-11-28T20:05:22.212Z,20.85
2018-11-28T20:07:51.407Z,21.68
2018-11-28T20:10:21.332Z,20.05
2018-11-28T20:12:50.254Z,20.50
2018-11-28T20:15:23.506Z,21.30
2018-11-28T20:17:52.341Z,19.80
2018-11-28T20:20:21.410Z,20.23
2018-11-28T20:22:50.399Z,20.82
2018-11-28T20:25:20.370Z,19.93
2018-11-28T20:27:53.999Z,19.73
2018-11-28T20:30:25.595Z,20.90
2018-11-28T20:32:54.367Z,20.02
2018-11-28T20:35:23.270Z,18.40
2018-11-28T20:37:52.154Z,19.67
2018-11-28T20:40:22.170Z,18.87
2018-11-28T20:42:52.187Z,18.40
2018-11-28T20:45:20.993Z,19.10
2018-11-28T20:47:49.778Z,18.20
2018-11-28T20:50:23.111Z,19.12
2018-11-28T20:52:55.063Z,18.77
2018-11-28T20:55:22.318Z,19.80
2018-11-28T20:57:51.117Z,18.20
2018-11-28T21:00:21.488Z,18.60
2018-11-28T21:02:50.375Z,17.40
2018-11-28T21:05:19.174Z,18.70
2018-11-28T21:07:47.972Z,17.35
2018-11-28T21:10:22.442Z,17.62
2018-11-28T21:12:51.238Z,18.10
2018-11-28T21:15:20.035Z,16.50
2018-11-28T21:17:48.985Z,16.87
2018-11-28T21:20:18.717Z,15.68
2018-11-28T21:22:49.026Z,16.70
2018-11-28T21:25:17.839Z,16.65
2018-11-28T21:27:46.623Z,16.42
2018-11-28T21:30:17.521Z,16.67
2018-11-28T21:32:46.374Z,15.90
2018-11-28T21:35:16.467Z,16.30
2018-11-28T21:37:45.256Z,16.17
2018-11-28T21:40:14.039Z,15.35
2018-11-28T21:42:42.830Z,14.30
2018-11-28T21:45:20.292Z,15.53
2018-11-28T21:47:49.147Z,16.80
2018-11-28T21:50:18.740Z,15.20
2018-11-28T21:52:47.744Z,15.15
2018-11-28T21:55:18.522Z,15.35
2018-11-28T21:57:47.369Z,15.58
2018-11-28T22:00:18.760Z,15.78
2018-11-28T22:02:47.582Z,14.73
2018-11-28T22:05:16.890Z,14.25
2018-11-28T22:07:45.714Z,14.10
2018-11-28T22:10:20.492Z,14.58
2018-11-28T22:12:49.386Z,14.78
2018-11-28T22:15:18.591Z,13.48
2018-11-28T22:17:51.667Z,13.50
2018-11-28T22:20:20.517Z,15.50
2018-11-28T22:22:49.326Z,13.40
2018-11-28T22:25:24.867Z,13.58
2018-11-28T22:27:53.736Z,13.00
2018-11-28T22:30:24.451Z,13.70
2018-11-28T22:32:53.301Z,13.88
2018-11-28T22:35:22.128Z,13.10
2018-11-28T22:37:51.015Z,12.88
2018-11-28T22:40:28.018Z,14.43
2018-11-28T22:42:56.816Z,13.38
2018-11-28T22:45:27.946Z,12.23
2018-11-28T22:47:56.747Z,12.60
2018-11-28T22:50:25.613Z,12.20
2018-11-28T22:52:54.441Z,12.40
2018-11-28T22:55:23.238Z,12.55
2018-11-28T22:57:52.046Z,11.03
2018-11-28T23:00:28.788Z,11.95
2018-11-28T23:03:00.117Z,11.90
2018-11-28T23:05:30.131Z,11.25
2018-11-28T23:07:59.915Z,11.12
2018-11-28T23:10:28.748Z,11.30
2018-11-28T23:12:57.593Z,10.82
2018-11-28T23:15:26.414Z,11.30
2018-11-28T23:17:55.571Z,10.90
2018-11-28T23:20:24.028Z,10.63
2018-11-28T23:22:52.841Z,10.30
2018-11-28T23:25:21.650Z,11.55
2018-11-28T23:27:51.135Z,10.72
2018-11-28T23:30:20.242Z,11.03
2018-11-28T23:32:49.675Z,11.40
2018-11-28T23:35:18.803Z,12.45
2018-11-28T23:37:48.442Z,11.73
2018-11-28T23:40:24.929Z,11.17
2018-11-28T23:42:54.406Z,10.90
2018-11-28T23:45:23.672Z,10.87
2018-11-28T23:47:52.507Z,10.93
2018-11-28T23:50:25.982Z,11.15
2018-11-28T23:52:55.551Z,11.20
2018-11-28T23:55:25.354Z,10.63
2018-11-28T23:57:54.486Z,10.37
